createdAt,value
2019-03-01T00:06:16.400Z,5.00
2019-03-01T00:09:12.437Z,5.00
2019-03-01T00:12:35.793Z,5.00
2019-03-01T00:15:27.144Z,5.00
2019-03-01T00:18:05.932Z,5.00
2019-03-01T00:21:08.969Z,5.00
2019-03-01T00:24:12.916Z,5.00
2019-03-01T00:27:03.714Z,5.00
2019-03-01T00:30:22.810Z,5.00
2019-03-01T00:33:03.935Z,5.00
2019-03-01T00:36:09.771Z,5.00
2019-03-01T00:39:22.851Z,4.90
2019-03-01T00:42:07.411Z,4.90
2019-03-01T00:44:44.431Z,4.90
2019-03-01T00:47:14.786Z,4.90
2019-03-01T00:49:44.454Z,4.90
2019-03-01T00:52:14.226Z,4.90
2019-03-01T00:54:43.832Z,4.90
2019-03-01T00:57:13.544Z,4.90
2019-03-01T00:59:43.188Z,4.90
2019-03-01T01:02:12.964Z,4.90
2019-03-01T01:04:42.675Z,4.90
2019-03-01T01:07:12.332Z,4.90
2019-03-01T01:09:41.935Z,4.90
2019-03-01T01:12:12.053Z,4.90
2019-03-01T01:14:41.699Z,4.90
2019-03-01T01:17:11.352Z,4.90
2019-03-01T01:19:41.003Z,4.90
2019-03-01T01:22:10.609Z,4.90
2019-03-01T01:24:40.280Z,4.90
2019-03-01T01:27:09.879Z,4.90
2019-03-01T01:29:39.567Z,4.80
2019-03-01T01:32:09.198Z,4.80
2019-03-01T01:34:38.915Z,4.80
2019-03-01T01:37:08.874Z,4.80
2019-03-01T01:39:38.565Z,4.90
2019-03-01T01:42:08.247Z,4.90
2019-03-01T01:44:37.859Z,4.90
2019-03-01T01:47:07.520Z,4.90
2019-03-01T01:49:37.127Z,4.80
2019-03-01T01:52:06.879Z,4.80
2019-03-01T01:54:36.495Z,4.80
2019-03-01T01:57:06.264Z,4.80
2019-03-01T01:59:35.873Z,4.80
2019-03-01T02:02:05.563Z,4.80
2019-03-01T02:04:35.223Z,4.80
2019-03-01T02:07:05.047Z,4.80
2019-03-01T02:09:35.870Z,4.80
2019-03-01T02:12:05.779Z,4.80
2019-03-01T02:14:35.415Z,4.80
2019-03-01T02:17:05.045Z,4.80
2019-03-01T02:19:34.655Z,4.80
2019-03-01T02:22:04.350Z,4.80
2019-03-01T02:24:34.031Z,4.80
2019-03-01T02:27:23.931Z,4.80
2019-03-01T02:29:53.642Z,4.80
2019-03-01T02:32:42.859Z,4.80
2019-03-01T02:35:14.651Z,4.80
2019-03-01T02:37:44.247Z,4.70
2019-03-01T02:40:14.440Z,4.80
2019-03-01T02:42:44.077Z,4.70
2019-03-01T02:45:16.326Z,4.70
2019-03-01T02:47:45.965Z,4.70
2019-03-01T02:50:16.628Z,4.70
2019-03-01T02:52:46.602Z,4.70
2019-03-01T02:55:17.201Z,4.70
2019-03-01T02:57:46.866Z,4.70
2019-03-01T03:00:21.539Z,4.70
2019-03-01T03:02:51.207Z,4.70
2019-03-01T03:05:20.804Z,4.70
2019-03-01T03:08:01.507Z,4.70
2019-03-01T03:10:31.122Z,4.70
2019-03-01T03:13:03.001Z,4.70
2019-03-01T03:15:37.923Z,4.70
2019-03-01T03:18:07.708Z,4.70
2019-03-01T03:20:37.341Z,4.70
2019-03-01T03:23:06.964Z,4.70
2019-03-01T03:25:36.601Z,4.60
2019-03-01T03:28:06.347Z,4.60
2019-03-01T03:30:36.080Z,4.60
2019-03-01T03:33:05.845Z,4.60
2019-03-01T03:35:35.572Z,4.60
2019-03-01T03:38:05.213Z,4.60
2019-03-01T03:40:34.839Z,4.60
2019-03-01T03:43:04.510Z,4.60
2019-03-01T03:45:34.157Z,4.60
2019-03-01T03:48:03.890Z,4.60
2019-03-01T03:50:33.491Z,4.60
2019-03-01T03:53:03.219Z,4.50
2019-03-01T03:55:33.088Z,4.60
2019-03-01T03:58:02.743Z,4.60
2019-03-01T04:00:32.404Z,4.60
2019-03-01T04:03:02.564Z,4.50
2019-03-01T04:05:32.367Z,4.50
2019-03-01T04:08:02.025Z,4.50
2019-03-01T04:10:31.623Z,4.50
2019-03-01T04:13:01.280Z,4.50
2019-03-01T04:15:30.893Z,4.50
2019-03-01T04:18:00.557Z,4.50
2019-03-01T04:20:30.329Z,4.50
2019-03-01T04:22:59.929Z,4.50
2019-03-01T04:25:29.590Z,4.50
2019-03-01T04:27:59.241Z,4.50
2019-03-01T04:30:28.865Z,4.50
2019-03-01T04:32:58.511Z,4.50
2019-03-01T04:35:28.144Z,4.50
2019-03-01T04:37:57.856Z,4.50
2019-03-01T04:40:27.455Z,4.50
2019-03-01T04:42:57.113Z,4.50
2019-03-01T04:45:26.765Z,4.50
2019-03-01T04:47:56.413Z,4.50
2019-03-01T04:50:26.220Z,4.50
2019-03-01T04:52:55.877Z,4.50
2019-03-01T04:55:26.248Z,4.50
2019-03-01T04:57:55.888Z,4.50
2019-03-01T05:00:25.542Z,4.50
2019-03-01T05:02:55.283Z,4.50
2019-03-01T05:05:24.931Z,4.50
2019-03-01T05:07:54.586Z,4.50
2019-03-01T05:10:24.236Z,4.50
2019-03-01T05:12:54.265Z,4.50
2019-03-01T05:15:24.151Z,4.50
2019-03-01T05:17:53.788Z,4.50
2019-03-01T05:20:23.452Z,4.40
2019-03-01T05:22:53.045Z,4.40
2019-03-01T05:25:22.686Z,4.40
2019-03-01T05:27:52.318Z,4.40
2019-03-01T05:30:21.973Z,4.40
2019-03-01T05:32:51.609Z,4.30
2019-03-01T05:35:21.276Z,4.30
2019-03-01T05:37:50.949Z,4.30
2019-03-01T05:40:21.529Z,4.30
2019-03-01T05:42:51.183Z,4.30
2019-03-01T05:45:22.758Z,4.30
2019-03-01T05:47:52.493Z,4.30
2019-03-01T05:50:22.106Z,4.30
2019-03-01T05:52:51.753Z,4.30
2019-03-01T05:55:21.425Z,4.30
2019-03-01T05:58:37.352Z,4.30
2019-03-01T06:01:16.939Z,4.30
2019-03-01T06:04:08.730Z,4.40
2019-03-01T06:07:21.445Z,4.40
2019-03-01T06:10:08.573Z,4.40
2019-03-01T06:13:31.235Z,4.40
2019-03-01T06:16:59.839Z,4.40
2019-03-01T06:19:55.812Z,4.40
2019-03-01T06:23:10.831Z,4.40
2019-03-01T06:26:05.946Z,4.40
2019-03-01T06:28:50.964Z,4.50
2019-03-01T06:31:50.919Z,4.50
2019-03-01T06:34:30.812Z,4.50
2019-03-01T06:37:30.380Z,4.50
2019-03-01T06:40:29.407Z,4.60
2019-03-01T06:43:37.235Z,4.60
2019-03-01T06:46:35.071Z,4.60
2019-03-01T06:49:21.833Z,4.70
2019-03-01T06:51:51.457Z,4.70
2019-03-01T06:54:21.134Z,4.80
2019-03-01T06:56:50.754Z,4.80
2019-03-01T06:59:20.394Z,4.90
2019-03-01T07:01:50.044Z,4.90
2019-03-01T07:04:20.007Z,4.90
2019-03-01T07:06:49.653Z,5.00
2019-03-01T07:09:19.363Z,5.00
2019-03-01T07:11:48.969Z,5.00
2019-03-01T07:14:18.670Z,5.00
2019-03-01T07:16:48.568Z,5.10
2019-03-01T07:19:18.230Z,5.10
2019-03-01T07:21:47.829Z,5.10
2019-03-01T07:24:17.575Z,5.10
2019-03-01T07:26:47.205Z,5.20
2019-03-01T07:29:16.861Z,5.20
2019-03-01T07:31:46.457Z,5.20
2019-03-01T07:34:16.450Z,5.20
2019-03-01T07:36:46.064Z,5.20
2019-03-01T07:39:15.681Z,5.20
2019-03-01T07:41:45.342Z,5.20
2019-03-01T07:44:14.989Z,5.30
2019-03-01T07:46:52.565Z,5.30
2019-03-01T07:49:16.105Z,5.30
2019-03-01T07:51:45.771Z,5.40
2019-03-01T07:54:16.695Z,5.40
2019-03-01T07:56:46.664Z,5.40
2019-03-01T07:59:16.336Z,5.40
2019-03-01T08:01:45.975Z,5.40
2019-03-01T08:04:15.592Z,5.50
2019-03-01T08:06:45.598Z,5.50
2019-03-01T08:09:16.773Z,5.50
2019-03-01T08:11:46.372Z,5.50
2019-03-01T08:14:16.016Z,5.40
2019-03-01T08:16:45.615Z,5.40
2019-03-01T08:19:15.740Z,5.40
2019-03-01T08:21:49.577Z,5.40
2019-03-01T08:24:17.800Z,5.40
2019-03-01T08:26:47.444Z,5.40
2019-03-01T08:29:17.233Z,5.40
2019-03-01T08:31:46.928Z,5.40
2019-03-01T08:34:17.771Z,5.40
2019-03-01T08:36:47.927Z,5.50
2019-03-01T08:39:17.609Z,5.50
2019-03-01T08:41:47.239Z,5.50
2019-03-01T08:44:19.312Z,5.50
2019-03-01T08:46:48.251Z,5.50
2019-03-01T08:49:17.853Z,5.50
2019-03-01T08:51:47.471Z,5.50
2019-03-01T08:54:17.171Z,5.60
2019-03-01T08:56:50.258Z,5.70
2019-03-01T08:59:18.708Z,5.70
2019-03-01T09:01:48.495Z,5.70
2019-03-01T09:04:21.398Z,5.70
2019-03-01T09:06:49.860Z,5.70
2019-03-01T09:09:20.951Z,5.70
2019-03-01T09:11:50.830Z,5.70
2019-03-01T09:14:22.694Z,5.70
2019-03-01T09:16:51.760Z,5.80
2019-03-01T09:19:22.388Z,5.80
2019-03-01T09:21:52.788Z,5.80
2019-03-01T09:24:25.547Z,5.80
2019-03-01T09:26:55.168Z,5.80
2019-03-01T09:29:24.978Z,5.80
2019-03-01T09:31:57.847Z,5.90
2019-03-01T09:34:28.742Z,5.90
2019-03-01T09:36:58.662Z,5.90
2019-03-01T09:39:28.331Z,6.00
2019-03-01T09:42:03.576Z,6.00
2019-03-01T09:44:29.242Z,6.00
2019-03-01T09:47:01.724Z,6.00
2019-03-01T09:49:30.139Z,6.00
2019-03-01T09:51:59.795Z,6.00
2019-03-01T09:54:29.404Z,6.00
2019-03-01T09:56:59.004Z,6.00
2019-03-01T09:59:28.723Z,5.90
2019-03-01T10:01:58.365Z,6.00
2019-03-01T10:04:28.105Z,5.90
2019-03-01T10:06:57.717Z,5.90
2019-03-01T10:09:27.408Z,5.90
2019-03-01T10:11:57.015Z,5.90
2019-03-01T10:14:26.627Z,5.90
2019-03-01T10:16:56.945Z,6.00
2019-03-01T10:19:26.547Z,6.00
2019-03-01T10:21:56.195Z,6.00
2019-03-01T10:24:25.862Z,6.00
2019-03-01T10:26:55.542Z,6.00
2019-03-01T10:29:25.157Z,6.10
2019-03-01T10:31:54.758Z,6.20
2019-03-01T10:34:24.456Z,6.20
2019-03-01T10:36:54.131Z,6.30
2019-03-01T10:39:23.842Z,6.30
2019-03-01T10:41:53.492Z,6.40
2019-03-01T10:44:23.103Z,6.40
2019-03-01T10:46:52.760Z,6.40
2019-03-01T10:49:22.404Z,6.40
2019-03-01T10:51:52.046Z,6.40
2019-03-01T10:54:21.717Z,6.30
2019-03-01T10:56:51.395Z,6.30
2019-03-01T10:59:20.983Z,6.30
2019-03-01T11:01:50.638Z,6.30
2019-03-01T11:04:20.243Z,6.30
2019-03-01T11:06:50.005Z,6.30
2019-03-01T11:09:19.633Z,6.30
2019-03-01T11:11:49.315Z,6.30
2019-03-01T11:14:18.900Z,6.20
2019-03-01T11:16:48.557Z,6.20
2019-03-01T11:19:18.142Z,6.10
2019-03-01T11:21:47.756Z,6.10
2019-03-01T11:24:17.512Z,6.10
2019-03-01T11:26:47.163Z,6.10
2019-03-01T11:29:16.851Z,6.10
2019-03-01T11:31:46.439Z,6.00
2019-03-01T11:34:16.123Z,6.00
2019-03-01T11:36:45.771Z,6.00
2019-03-01T11:39:17.080Z,6.00
2019-03-01T11:41:46.729Z,6.00
2019-03-01T11:44:16.435Z,5.90
2019-03-01T11:46:46.222Z,5.90
2019-03-01T11:49:16.242Z,6.00
2019-03-01T11:51:45.924Z,6.10
2019-03-01T11:54:15.595Z,6.10
2019-03-01T11:56:45.219Z,6.10
2019-03-01T11:59:14.896Z,6.10
2019-03-01T12:01:44.583Z,6.10
2019-03-01T12:04:47.839Z,6.10
2019-03-01T12:07:18.389Z,6.10
2019-03-01T12:09:48.044Z,6.10
2019-03-01T12:12:17.707Z,6.10
2019-03-01T12:14:47.334Z,6.10
2019-03-01T12:17:17.148Z,6.10
2019-03-01T12:19:46.757Z,6.10
2019-03-01T12:22:17.332Z,6.10
2019-03-01T12:24:47.302Z,6.20
2019-03-01T12:27:16.939Z,6.10
2019-03-01T12:29:46.555Z,6.20
2019-03-01T12:32:16.566Z,6.20
2019-03-01T12:34:46.173Z,6.20
2019-03-01T12:37:15.793Z,6.20
2019-03-01T12:39:45.773Z,6.20
2019-03-01T12:42:15.464Z,6.10
2019-03-01T12:44:45.155Z,6.10
2019-03-01T12:47:14.796Z,6.00
2019-03-01T12:49:44.500Z,6.00
2019-03-01T12:52:14.123Z,5.90
2019-03-01T12:54:43.754Z,6.00
2019-03-01T12:57:13.333Z,6.00
2019-03-01T12:59:43.005Z,6.00
2019-03-01T13:02:12.626Z,6.00
2019-03-01T13:04:42.311Z,6.10
2019-03-01T13:07:13.240Z,6.10
2019-03-01T13:09:43.294Z,6.00
2019-03-01T13:12:12.951Z,6.00
2019-03-01T13:14:42.595Z,6.00
2019-03-01T13:17:13.102Z,5.90
2019-03-01T13:19:42.776Z,5.80
2019-03-01T13:22:12.394Z,5.70
2019-03-01T13:24:42.046Z,5.60
2019-03-01T13:27:14.094Z,5.60
2019-03-01T13:29:44.639Z,5.50
2019-03-01T13:32:14.281Z,5.50
2019-03-01T13:34:45.802Z,5.50
2019-03-01T13:37:19.400Z,5.50
2019-03-01T13:39:48.663Z,5.40
2019-03-01T13:42:17.873Z,5.40
2019-03-01T13:44:47.495Z,5.30
2019-03-01T13:47:17.219Z,5.30
2019-03-01T13:49:46.918Z,5.30
2019-03-01T13:52:16.504Z,5.30
2019-03-01T13:54:46.309Z,5.30
2019-03-01T13:57:16.031Z,5.20
2019-03-01T13:59:45.682Z,5.20
2019-03-01T14:02:15.371Z,5.20
2019-03-01T14:04:45.007Z,5.20
2019-03-01T14:07:14.671Z,5.10
2019-03-01T14:09:44.321Z,5.10
2019-03-01T14:12:13.989Z,5.00
2019-03-01T14:14:43.667Z,5.00
2019-03-01T14:17:13.324Z,5.10
2019-03-01T14:19:43.088Z,5.10
2019-03-01T14:22:13.983Z,5.10
2019-03-01T14:24:43.869Z,5.10
2019-03-01T14:27:13.566Z,5.10
2019-03-01T14:29:43.232Z,5.10
2019-03-01T14:32:15.378Z,5.20
2019-03-01T14:34:48.707Z,5.20
2019-03-01T14:37:19.414Z,5.30
2019-03-01T14:39:49.149Z,5.40
2019-03-01T14:42:18.879Z,5.40
2019-03-01T14:44:48.555Z,5.50
2019-03-01T14:47:18.308Z,5.60
2019-03-01T14:49:48.125Z,5.50
2019-03-01T14:52:21.333Z,5.60
2019-03-01T14:54:51.648Z,5.60
2019-03-01T14:57:31.679Z,5.60
2019-03-01T15:00:14.021Z,5.60
2019-03-01T15:03:32.586Z,5.60
2019-03-01T15:06:02.422Z,5.70
2019-03-01T15:08:32.407Z,5.60
2019-03-01T15:11:07.912Z,5.60
2019-03-01T15:13:36.004Z,5.60
2019-03-01T15:16:06.179Z,5.60
2019-03-01T15:18:36.595Z,5.60
2019-03-01T15:21:07.324Z,5.60
2019-03-01T15:23:36.973Z,5.60
2019-03-01T15:26:06.937Z,5.50
2019-03-01T15:28:55.870Z,5.50
2019-03-01T15:31:25.749Z,5.50
2019-03-01T15:33:55.369Z,5.40
2019-03-01T15:36:24.925Z,5.40
2019-03-01T15:38:56.121Z,5.40
2019-03-01T15:41:25.816Z,5.30
2019-03-01T15:43:55.402Z,5.30
2019-03-01T15:46:25.147Z,5.30
2019-03-01T15:48:54.789Z,5.20
2019-03-01T15:51:24.462Z,5.20
2019-03-01T15:53:54.138Z,5.20
2019-03-01T15:56:23.939Z,5.20
2019-03-01T15:58:53.648Z,5.10
2019-03-01T16:01:23.306Z,5.10
2019-03-01T16:03:54.138Z,5.10
2019-03-01T16:06:24.214Z,5.10
2019-03-01T16:08:53.821Z,5.00
2019-03-01T16:11:23.566Z,5.00
2019-03-01T16:13:53.509Z,5.00
2019-03-01T16:16:23.190Z,5.00
2019-03-01T16:18:53.037Z,4.90
2019-03-01T16:21:22.616Z,4.90
2019-03-01T16:23:52.246Z,4.90
2019-03-01T16:26:29.596Z,4.80
2019-03-01T16:28:53.026Z,4.80
2019-03-01T16:31:22.689Z,4.80
2019-03-01T16:33:52.215Z,4.80
2019-03-01T16:36:30.274Z,4.70
2019-03-01T16:38:59.968Z,4.70
2019-03-01T16:41:29.557Z,4.70
2019-03-01T16:44:01.315Z,4.60
2019-03-01T16:46:31.509Z,4.60
2019-03-01T16:49:01.874Z,4.50
2019-03-01T16:51:31.382Z,4.50
2019-03-01T16:54:00.944Z,4.50
2019-03-01T16:56:34.654Z,4.40
2019-03-01T16:59:07.113Z,4.40
2019-03-01T17:01:36.110Z,4.40
2019-03-01T17:04:06.069Z,4.30
2019-03-01T17:06:36.025Z,4.30
2019-03-01T17:09:07.907Z,4.30
2019-03-01T17:11:41.403Z,4.30
2019-03-01T17:14:09.723Z,4.30
2019-03-01T17:16:41.685Z,4.20
2019-03-01T17:19:27.645Z,4.20
2019-03-01T17:21:59.159Z,4.20
2019-03-01T17:24:48.339Z,4.10
2019-03-01T17:27:25.955Z,4.10
2019-03-01T17:29:55.687Z,4.10
2019-03-01T17:32:25.474Z,4.10
2019-03-01T17:34:55.215Z,4.10
2019-03-01T17:37:25.889Z,4.10
2019-03-01T17:39:56.526Z,4.10
2019-03-01T17:42:27.420Z,4.10
2019-03-01T17:44:57.231Z,4.00
2019-03-01T17:47:27.864Z,4.00
2019-03-01T17:49:57.803Z,4.00
2019-03-01T17:52:30.579Z,4.00
2019-03-01T17:55:01.398Z,4.00
2019-03-01T17:57:33.157Z,4.00
2019-03-01T18:00:02.488Z,4.00
2019-03-01T18:02:32.260Z,4.00
2019-03-01T18:05:01.942Z,4.00
2019-03-01T18:07:32.945Z,3.90
2019-03-01T18:10:02.707Z,3.90
2019-03-01T18:12:32.391Z,3.90
2019-03-01T18:15:02.324Z,3.80
2019-03-01T18:17:36.505Z,3.90
2019-03-01T18:20:08.546Z,3.80
2019-03-01T18:22:38.398Z,3.80
2019-03-01T18:25:09.694Z,3.80
2019-03-01T18:27:39.788Z,3.70
2019-03-01T18:30:16.216Z,3.70
2019-03-01T18:32:46.991Z,3.70
2019-03-01T18:35:16.965Z,3.70
2019-03-01T18:37:46.619Z,3.70
2019-03-01T18:40:18.316Z,3.60
2019-03-01T18:42:48.214Z,3.60
2019-03-01T18:45:19.759Z,3.60
2019-03-01T18:47:49.627Z,3.60
2019-03-01T18:50:21.821Z,3.60
2019-03-01T18:52:53.224Z,3.60
2019-03-01T18:55:23.742Z,3.60
2019-03-01T18:57:53.390Z,3.60
2019-03-01T19:00:26.263Z,3.50
2019-03-01T19:02:57.477Z,3.50
2019-03-01T19:05:27.333Z,3.50
2019-03-01T19:07:57.196Z,3.50
2019-03-01T19:10:27.530Z,3.40
2019-03-01T19:12:58.534Z,3.40
2019-03-01T19:15:28.287Z,3.40
2019-03-01T19:17:58.746Z,3.30
2019-03-01T19:20:28.626Z,3.30
2019-03-01T19:22:58.686Z,3.30
2019-03-01T19:25:29.023Z,3.30
2019-03-01T19:28:00.565Z,3.30
2019-03-01T19:30:32.617Z,3.20
2019-03-01T19:33:03.386Z,3.20
2019-03-01T19:35:33.456Z,3.20
2019-03-01T19:38:03.381Z,3.20
2019-03-01T19:40:32.982Z,3.20
2019-03-01T19:43:02.770Z,3.10
2019-03-01T19:45:33.465Z,3.00
2019-03-01T19:48:04.307Z,3.00
2019-03-01T19:50:34.218Z,3.00
2019-03-01T19:53:04.317Z,2.90
2019-03-01T19:55:34.417Z,2.90
2019-03-01T19:58:04.416Z,2.90
2019-03-01T20:00:34.073Z,2.90
2019-03-01T20:03:06.647Z,2.80
2019-03-01T20:05:36.056Z,2.80
2019-03-01T20:08:05.761Z,2.70
2019-03-01T20:10:36.961Z,2.70
2019-03-01T20:13:06.946Z,2.70
2019-03-01T20:15:36.744Z,2.70
2019-03-01T20:18:09.553Z,2.70
2019-03-01T20:20:37.869Z,2.70
2019-03-01T20:23:07.757Z,2.70
2019-03-01T20:25:37.544Z,2.70
2019-03-01T20:28:07.255Z,2.70
2019-03-01T20:30:37.296Z,2.70
2019-03-01T20:33:06.988Z,2.70
2019-03-01T20:35:36.737Z,2.70
2019-03-01T20:38:06.643Z,2.60
2019-03-01T20:40:36.404Z,2.60
2019-03-01T20:43:07.039Z,2.70
2019-03-01T20:45:38.434Z,2.60
2019-03-01T20:48:08.236Z,2.60
2019-03-01T20:50:38.322Z,2.60
2019-03-01T20:53:10.157Z,2.60
2019-03-01T20:55:42.521Z,2.60
2019-03-01T20:58:12.610Z,2.60
2019-03-01T21:00:42.656Z,2.50
2019-03-01T21:03:12.506Z,2.50
2019-03-01T21:05:44.394Z,2.50
2019-03-01T21:08:15.400Z,2.50
2019-03-01T21:10:50.120Z,2.40
2019-03-01T21:13:20.399Z,2.40
2019-03-01T21:15:50.142Z,2.40
2019-03-01T21:18:20.422Z,2.40
2019-03-01T21:20:50.605Z,2.40
2019-03-01T21:23:24.036Z,2.30
2019-03-01T21:25:56.016Z,2.30
2019-03-01T21:28:25.724Z,2.30
2019-03-01T21:30:55.654Z,2.30
2019-03-01T21:33:28.285Z,2.20
2019-03-01T21:35:58.098Z,2.20
2019-03-01T21:38:27.932Z,2.20
2019-03-01T21:40:58.004Z,2.20
2019-03-01T21:43:30.562Z,2.20
2019-03-01T21:45:59.888Z,2.20
2019-03-01T21:48:30.746Z,2.20
2019-03-01T21:51:00.944Z,2.20
2019-03-01T21:53:30.836Z,2.20
2019-03-01T21:56:00.647Z,2.20
2019-03-01T21:58:32.126Z,2.20
2019-03-01T22:01:05.863Z,2.20
2019-03-01T22:03:35.098Z,2.10
2019-03-01T22:06:05.009Z,2.10
2019-03-01T22:08:34.672Z,2.10
2019-03-01T22:11:04.570Z,2.10
2019-03-01T22:13:35.813Z,2.00
2019-03-01T22:16:06.010Z,2.00
2019-03-01T22:18:36.396Z,1.90
2019-03-01T22:21:06.189Z,1.90
2019-03-01T22:23:35.943Z,1.90
2019-03-01T22:26:05.583Z,1.80
2019-03-01T22:28:36.233Z,1.80
2019-03-01T22:31:07.033Z,1.70
2019-03-01T22:33:37.068Z,1.70
2019-03-01T22:36:06.741Z,1.60
2019-03-01T22:38:37.686Z,1.50
2019-03-01T22:41:07.751Z,1.40
2019-03-01T22:43:37.356Z,1.30
2019-03-01T22:46:07.080Z,1.20
2019-03-01T22:48:36.727Z,1.10
2019-03-01T22:51:06.511Z,0.90
2019-03-01T22:53:38.522Z,0.80
2019-03-01T22:56:08.644Z,0.70
2019-03-01T22:58:39.083Z,0.50
2019-03-01T23:01:16.032Z,0.40
2019-03-01T23:03:51.538Z,0.30
2019-03-01T23:06:22.354Z,0.20
2019-03-01T23:08:51.919Z,0.10
2019-03-01T23:11:21.632Z,0.00
2019-03-01T23:13:52.783Z,-0.10
2019-03-01T23:16:22.605Z,-0.20
2019-03-01T23:18:56.698Z,-0.30
2019-03-01T23:21:23.541Z,-0.30
2019-03-01T23:23:55.811Z,-0.40
2019-03-01T23:26:24.467Z,-0.40
2019-03-01T23:28:54.127Z,-0.40
2019-03-01T23:31:23.859Z,-0.40
2019-03-01T23:33:57.760Z,-0.30
2019-03-01T23:36:28.529Z,-0.20
2019-03-01T23:38:58.666Z,-0.10
2019-03-01T23:41:28.278Z,-0.10
2019-03-01T23:43:57.929Z,0.00
2019-03-01T23:46:28.585Z,0.10
2019-03-01T23:49:06.096Z,0.20
2019-03-01T23:51:30.409Z,0.20
2019-03-01T23:54:00.026Z,0.30
2019-03-01T23:56:29.899Z,0.30
2019-03-01T23:59:00.282Z,0.40
